sensor_id;sensor_type;location;lat;lon;timestamp;pressure;altitude;pressure_sealevel;temperature;humidity
17230;BME280;8731;50.364;8.958;2023-06-22T00:02:04;100222.75;;;23.08;72.42
17230;BME280;8731;50.364;8.958;2023-06-22T00:06:28;100184.38;;;23.22;71.41
17230;BME280;8731;50.364;8.958;2023-06-22T00:10:50;100131.66;;;22.46;77.21
17230;BME280;8731;50.364;8.958;2023-06-22T00:15:12;100060.59;;;22.03;78.51
17230;BME280;8731;50.364;8.958;2023-06-22T00:19:35;100011.63;;;22.71;72.11
17230;BME280;8731;50.364;8.958;2023-06-22T00:24:02;100024.44;;;22.87;71.03
17230;BME280;8731;50.364;8.958;2023-06-22T00:28:27;100037.97;;;22.99;68.86
17230;BME280;8731;50.364;8.958;2023-06-22T00:32:50;100055.03;;;22.94;69.40
17230;BME280;8731;50.364;8.958;2023-06-22T00:37:13;100071.13;;;23.06;68.20
17230;BME280;8731;50.364;8.958;2023-06-22T00:41:38;100096.94;;;23.02;69.69
17230;BME280;8731;50.364;8.958;2023-06-22T00:46:00;100120.50;;;23.06;69.27
17230;BME280;8731;50.364;8.958;2023-06-22T00:50:26;100147.66;;;23.14;68.95
17230;BME280;8731;50.364;8.958;2023-06-22T00:54:53;100160.59;;;23.13;69.43
17230;BME280;8731;50.364;8.958;2023-06-22T00:59:20;100178.06;;;22.96;69.43
17230;BME280;8731;50.364;8.958;2023-06-22T01:03:42;100191.19;;;22.99;69.99
17230;BME280;8731;50.364;8.958;2023-06-22T01:08:14;100187.69;;;22.99;69.97
17230;BME280;8731;50.364;8.958;2023-06-22T01:12:48;100196.25;;;22.96;70.90
17230;BME280;8731;50.364;8.958;2023-06-22T01:17:16;100213.94;;;22.85;71.87
17230;BME280;8731;50.364;8.958;2023-06-22T01:21:42;100234.75;;;22.67;72.47
17230;BME280;8731;50.364;8.958;2023-06-22T01:26:11;100256.84;;;22.40;74.18
17230;BME280;8731;50.364;8.958;2023-06-22T01:30:45;100259.75;;;22.65;74.51
17230;BME280;8731;50.364;8.958;2023-06-22T01:35:10;100281.00;;;22.39;74.66
17230;BME280;8731;50.364;8.958;2023-06-22T01:39:34;100299.16;;;22.57;74.92
17230;BME280;8731;50.364;8.958;2023-06-22T01:43:58;100322.59;;;22.23;77.80
17230;BME280;8731;50.364;8.958;2023-06-22T01:48:23;100330.91;;;22.33;77.41
17230;BME280;8731;50.364;8.958;2023-06-22T01:52:46;100286.22;;;21.69;86.39
17230;BME280;8731;50.364;8.958;2023-06-22T01:57:10;100219.59;;;21.85;85.04
17230;BME280;8731;50.364;8.958;2023-06-22T02:01:39;100245.59;;;22.22;82.05
17230;BME280;8731;50.364;8.958;2023-06-22T02:06:08;100208.69;;;21.74;89.31
17230;BME280;8731;50.364;8.958;2023-06-22T02:10:40;100164.81;;;21.96;86.60
17230;BME280;8731;50.364;8.958;2023-06-22T02:15:06;100139.44;;;22.07;85.15
17230;BME280;8731;50.364;8.958;2023-06-22T02:19:30;100147.97;;;22.04;85.55
17230;BME280;8731;50.364;8.958;2023-06-22T02:23:55;100180.41;;;22.14;81.92
17230;BME280;8731;50.364;8.958;2023-06-22T02:28:17;100184.09;;;22.01;83.92
17230;BME280;8731;50.364;8.958;2023-06-22T02:32:40;100187.09;;;22.09;83.07
17230;BME280;8731;50.364;8.958;2023-06-22T02:37:03;100162.84;;;21.73;85.84
17230;BME280;8731;50.364;8.958;2023-06-22T02:41:27;100144.88;;;21.58;87.36
17230;BME280;8731;50.364;8.958;2023-06-22T02:45:50;100122.16;;;21.90;84.16
17230;BME280;8731;50.364;8.958;2023-06-22T02:50:13;100110.78;;;21.68;85.90
17230;BME280;8731;50.364;8.958;2023-06-22T02:54:36;100129.06;;;21.89;84.62
17230;BME280;8731;50.364;8.958;2023-06-22T02:59:00;100125.78;;;21.56;89.22
17230;BME280;8731;50.364;8.958;2023-06-22T03:03:28;100122.59;;;21.62;87.58
17230;BME280;8731;50.364;8.958;2023-06-22T03:07:51;100149.47;;;21.82;85.40
17230;BME280;8731;50.364;8.958;2023-06-22T03:12:13;100139.66;;;21.76;85.84
17230;BME280;8731;50.364;8.958;2023-06-22T03:16:45;100110.44;;;21.61;86.91
17230;BME280;8731;50.364;8.958;2023-06-22T03:21:07;100125.09;;;21.78;85.01
17230;BME280;8731;50.364;8.958;2023-06-22T03:25:30;100139.38;;;21.70;85.19
17230;BME280;8731;50.364;8.958;2023-06-22T03:34:23;100126.00;;;21.61;87.91
17230;BME280;8731;50.364;8.958;2023-06-22T03:38:47;100118.16;;;21.59;86.95
17230;BME280;8731;50.364;8.958;2023-06-22T03:43:12;100112.06;;;21.41;89.27
17230;BME280;8731;50.364;8.958;2023-06-22T03:47:34;100105.41;;;21.46;90.36
17230;BME280;8731;50.364;8.958;2023-06-22T03:51:59;100121.19;;;21.33;89.69
17230;BME280;8731;50.364;8.958;2023-06-22T03:56:22;100126.13;;;21.28;89.03
17230;BME280;8731;50.364;8.958;2023-06-22T04:00:45;100119.63;;;21.36;87.66
17230;BME280;8731;50.364;8.958;2023-06-22T04:05:08;100116.00;;;21.33;89.22
17230;BME280;8731;50.364;8.958;2023-06-22T04:09:32;100112.69;;;21.19;89.74
17230;BME280;8731;50.364;8.958;2023-06-22T04:13:55;100115.53;;;21.24;90.98
17230;BME280;8731;50.364;8.958;2023-06-22T04:18:17;100111.13;;;21.39;88.66
17230;BME280;8731;50.364;8.958;2023-06-22T04:22:40;100116.94;;;21.53;87.33
17230;BME280;8731;50.364;8.958;2023-06-22T04:27:05;100120.22;;;21.49;88.72
17230;BME280;8731;50.364;8.958;2023-06-22T04:31:27;100123.84;;;21.34;91.14
17230;BME280;8731;50.364;8.958;2023-06-22T04:35:52;100124.81;;;21.20;93.79
17230;BME280;8731;50.364;8.958;2023-06-22T04:40:15;100126.66;;;21.57;88.77
17230;BME280;8731;50.364;8.958;2023-06-22T04:44:38;100130.06;;;21.56;89.17
17230;BME280;8731;50.364;8.958;2023-06-22T04:49:01;100134.41;;;21.74;88.37
17230;BME280;8731;50.364;8.958;2023-06-22T04:58:03;100130.50;;;21.65;91.04
17230;BME280;8731;50.364;8.958;2023-06-22T05:02:27;100137.13;;;21.95;88.23
17230;BME280;8731;50.364;8.958;2023-06-22T05:06:53;100141.97;;;22.05;88.09
17230;BME280;8731;50.364;8.958;2023-06-22T05:11:16;100145.22;;;22.01;89.50
17230;BME280;8731;50.364;8.958;2023-06-22T05:15:39;100138.75;;;22.11;89.40
17230;BME280;8731;50.364;8.958;2023-06-22T05:20:03;100136.56;;;22.20;90.00
17230;BME280;8731;50.364;8.958;2023-06-22T05:24:27;100132.84;;;22.33;89.26
17230;BME280;8731;50.364;8.958;2023-06-22T05:28:50;100117.34;;;22.54;87.45
17230;BME280;8731;50.364;8.958;2023-06-22T05:33:12;100113.56;;;22.66;87.14
17230;BME280;8731;50.364;8.958;2023-06-22T05:37:40;100122.94;;;22.82;87.42
17230;BME280;8731;50.364;8.958;2023-06-22T05:42:04;100132.53;;;23.04;86.09
17230;BME280;8731;50.364;8.958;2023-06-22T05:46:27;100138.69;;;23.27;84.95
17230;BME280;8731;50.364;8.958;2023-06-22T05:50:50;100119.09;;;23.56;85.72
17230;BME280;8731;50.364;8.958;2023-06-22T05:55:14;100123.19;;;23.72;84.40
17230;BME280;8731;50.364;8.958;2023-06-22T05:59:38;100116.06;;;24.35;81.89
17230;BME280;8731;50.364;8.958;2023-06-22T06:04:02;100109.72;;;24.76;80.08
17230;BME280;8731;50.364;8.958;2023-06-22T06:08:28;100102.16;;;25.07;80.89
17230;BME280;8731;50.364;8.958;2023-06-22T06:12:52;100108.28;;;25.35;79.00
17230;BME280;8731;50.364;8.958;2023-06-22T06:17:15;100108.34;;;26.22;76.99
17230;BME280;8731;50.364;8.958;2023-06-22T06:21:37;100097.34;;;26.62;74.82
17230;BME280;8731;50.364;8.958;2023-06-22T06:26:00;100092.28;;;27.00;70.44
17230;BME280;8731;50.364;8.958;2023-06-22T06:30:24;100094.25;;;27.82;69.24
17230;BME280;8731;50.364;8.958;2023-06-22T06:34:48;100085.59;;;27.47;69.44
17230;BME280;8731;50.364;8.958;2023-06-22T06:39:10;100079.06;;;28.94;66.43
17230;BME280;8731;50.364;8.958;2023-06-22T06:43:35;100086.84;;;29.44;63.37
17230;BME280;8731;50.364;8.958;2023-06-22T06:48:00;100083.28;;;29.99;63.21
17230;BME280;8731;50.364;8.958;2023-06-22T06:52:22;100074.13;;;30.36;61.05
17230;BME280;8731;50.364;8.958;2023-06-22T06:56:47;100074.13;;;29.70;59.85
17230;BME280;8731;50.364;8.958;2023-06-22T07:01:11;100065.38;;;31.24;59.65
17230;BME280;8731;50.364;8.958;2023-06-22T07:05:35;100057.34;;;31.11;58.45
17230;BME280;8731;50.364;8.958;2023-06-22T07:09:58;100068.31;;;30.65;58.54
17230;BME280;8731;50.364;8.958;2023-06-22T07:14:20;100054.22;;;31.66;57.19
17230;BME280;8731;50.364;8.958;2023-06-22T07:18:43;100055.06;;;31.57;56.56
17230;BME280;8731;50.364;8.958;2023-06-22T07:23:07;100054.56;;;30.95;56.37
17230;BME280;8731;50.364;8.958;2023-06-22T07:27:29;100056.75;;;30.50;56.46
17230;BME280;8731;50.364;8.958;2023-06-22T07:31:56;100048.91;;;31.60;54.75
17230;BME280;8731;50.364;8.958;2023-06-22T07:36:21;100039.56;;;32.20;54.04
17230;BME280;8731;50.364;8.958;2023-06-22T07:40:45;100034.41;;;32.69;54.95
17230;BME280;8731;50.364;8.958;2023-06-22T07:45:08;100031.81;;;33.37;53.84
17230;BME280;8731;50.364;8.958;2023-06-22T07:49:31;100033.50;;;32.59;52.62
17230;BME280;8731;50.364;8.958;2023-06-22T07:53:56;100027.31;;;33.67;52.44
17230;BME280;8731;50.364;8.958;2023-06-22T07:58:20;100028.22;;;33.50;50.32
17230;BME280;8731;50.364;8.958;2023-06-22T08:02:45;100025.66;;;33.00;52.46
17230;BME280;8731;50.364;8.958;2023-06-22T08:07:08;100013.00;;;34.18;49.55
17230;BME280;8731;50.364;8.958;2023-06-22T08:11:32;100006.56;;;34.63;49.65
17230;BME280;8731;50.364;8.958;2023-06-22T08:15:56;100001.56;;;34.17;49.10
17230;BME280;8731;50.364;8.958;2023-06-22T08:20:19;99993.25;;;34.71;48.22
17230;BME280;8731;50.364;8.958;2023-06-22T08:24:41;99991.63;;;34.56;48.97
17230;BME280;8731;50.364;8.958;2023-06-22T08:29:04;99986.81;;;35.07;48.63
17230;BME280;8731;50.364;8.958;2023-06-22T08:33:28;99995.25;;;36.15;45.14
17230;BME280;8731;50.364;8.958;2023-06-22T08:37:51;99992.75;;;36.06;46.26
17230;BME280;8731;50.364;8.958;2023-06-22T08:42:17;99980.66;;;35.83;45.77
17230;BME280;8731;50.364;8.958;2023-06-22T08:46:39;99978.78;;;35.13;47.24
17230;BME280;8731;50.364;8.958;2023-06-22T08:51:04;99974.97;;;36.11;47.03
17230;BME280;8731;50.364;8.958;2023-06-22T08:55:27;99976.34;;;35.72;45.81
17230;BME280;8731;50.364;8.958;2023-06-22T08:59:49;99976.44;;;34.76;44.65
17230;BME280;8731;50.364;8.958;2023-06-22T09:04:12;99955.81;;;34.03;45.64
17230;BME280;8731;50.364;8.958;2023-06-22T09:08:36;99959.25;;;34.17;44.36
17230;BME280;8731;50.364;8.958;2023-06-22T09:12:59;99965.34;;;34.36;45.93
17230;BME280;8731;50.364;8.958;2023-06-22T09:17:21;99961.13;;;33.99;44.68
17230;BME280;8731;50.364;8.958;2023-06-22T09:21:44;99956.59;;;34.19;44.53
17230;BME280;8731;50.364;8.958;2023-06-22T09:26:08;99947.16;;;33.71;45.92
17230;BME280;8731;50.364;8.958;2023-06-22T09:30:30;99945.38;;;34.98;44.05
17230;BME280;8731;50.364;8.958;2023-06-22T09:34:53;99940.72;;;34.21;44.43
17230;BME280;8731;50.364;8.958;2023-06-22T09:39:16;99940.81;;;35.14;43.62
17230;BME280;8731;50.364;8.958;2023-06-22T09:43:40;99939.78;;;34.28;45.84
17230;BME280;8731;50.364;8.958;2023-06-22T09:48:03;99923.94;;;34.25;45.32
17230;BME280;8731;50.364;8.958;2023-06-22T09:52:27;99913.88;;;33.24;46.24
17230;BME280;8731;50.364;8.958;2023-06-22T09:56:50;99911.31;;;32.39;48.34
17230;BME280;8731;50.364;8.958;2023-06-22T10:01:13;99908.34;;;33.88;45.17
17230;BME280;8731;50.364;8.958;2023-06-22T10:05:36;99893.94;;;34.29;44.73
17230;BME280;8731;50.364;8.958;2023-06-22T10:09:58;99895.00;;;34.08;45.33
17230;BME280;8731;50.364;8.958;2023-06-22T10:14:21;99880.69;;;34.38;45.62
17230;BME280;8731;50.364;8.958;2023-06-22T10:18:46;99887.47;;;33.22;44.46
17230;BME280;8731;50.364;8.958;2023-06-22T10:23:08;99884.81;;;33.36;44.34
17230;BME280;8731;50.364;8.958;2023-06-22T10:27:30;99882.97;;;34.74;43.82
17230;BME280;8731;50.364;8.958;2023-06-22T10:31:53;99874.97;;;33.69;43.58
17230;BME280;8731;50.364;8.958;2023-06-22T10:36:19;99848.69;;;33.44;43.90
17230;BME280;8731;50.364;8.958;2023-06-22T10:40:42;99840.63;;;34.79;44.15
17230;BME280;8731;50.364;8.958;2023-06-22T10:45:06;99838.91;;;33.63;43.33
17230;BME280;8731;50.364;8.958;2023-06-22T10:49:29;99830.88;;;34.84;42.59
17230;BME280;8731;50.364;8.958;2023-06-22T10:53:53;99821.22;;;33.74;44.11
17230;BME280;8731;50.364;8.958;2023-06-22T10:58:19;99819.88;;;32.83;43.31
17230;BME280;8731;50.364;8.958;2023-06-22T11:02:41;99816.13;;;33.45;43.08
17230;BME280;8731;50.364;8.958;2023-06-22T11:07:06;99815.00;;;33.80;43.00
17230;BME280;8731;50.364;8.958;2023-06-22T11:11:29;99790.59;;;33.44;43.90
17230;BME280;8731;50.364;8.958;2023-06-22T11:15:52;99794.94;;;33.51;44.28
17230;BME280;8731;50.364;8.958;2023-06-22T11:20:14;99777.97;;;33.91;43.38
17230;BME280;8731;50.364;8.958;2023-06-22T11:24:37;99770.25;;;33.58;43.72
17230;BME280;8731;50.364;8.958;2023-06-22T11:29:01;99759.06;;;33.11;45.23
17230;BME280;8731;50.364;8.958;2023-06-22T11:33:25;99745.97;;;32.94;44.97
17230;BME280;8731;50.364;8.958;2023-06-22T11:37:48;99730.94;;;33.07;44.93
17230;BME280;8731;50.364;8.958;2023-06-22T11:42:10;99719.88;;;33.86;43.96
17230;BME280;8731;50.364;8.958;2023-06-22T11:46:34;99705.47;;;34.17;44.27
17230;BME280;8731;50.364;8.958;2023-06-22T11:50:57;99708.59;;;33.63;44.99
17230;BME280;8731;50.364;8.958;2023-06-22T11:55:20;99705.63;;;32.60;45.60
17230;BME280;8731;50.364;8.958;2023-06-22T11:59:42;99700.66;;;33.64;45.43
17230;BME280;8731;50.364;8.958;2023-06-22T12:04:06;99700.25;;;34.13;44.75
17230;BME280;8731;50.364;8.958;2023-06-22T12:08:31;99703.25;;;33.69;44.62
17230;BME280;8731;50.364;8.958;2023-06-22T12:12:54;99694.00;;;33.07;45.12
17230;BME280;8731;50.364;8.958;2023-06-22T12:17:20;99684.28;;;33.16;44.94
17230;BME280;8731;50.364;8.958;2023-06-22T12:21:46;99678.22;;;33.01;45.62
17230;BME280;8731;50.364;8.958;2023-06-22T12:26:08;99671.25;;;34.02;44.55
17230;BME280;8731;50.364;8.958;2023-06-22T12:30:32;99674.22;;;33.69;45.32
17230;BME280;8731;50.364;8.958;2023-06-22T12:34:55;99660.53;;;34.17;44.62
17230;BME280;8731;50.364;8.958;2023-06-22T12:39:19;99657.66;;;33.48;44.90
17230;BME280;8731;50.364;8.958;2023-06-22T12:43:42;99641.91;;;33.35;45.94
17230;BME280;8731;50.364;8.958;2023-06-22T12:48:05;99644.19;;;33.77;44.60
17230;BME280;8731;50.364;8.958;2023-06-22T12:52:29;99650.53;;;33.56;44.90
17230;BME280;8731;50.364;8.958;2023-06-22T12:56:55;99658.06;;;32.89;45.65
17230;BME280;8731;50.364;8.958;2023-06-22T13:01:18;99641.94;;;33.28;45.09
17230;BME280;8731;50.364;8.958;2023-06-22T13:05:40;99630.28;;;33.55;45.43
17230;BME280;8731;50.364;8.958;2023-06-22T13:10:06;99619.63;;;33.68;44.49
17230;BME280;8731;50.364;8.958;2023-06-22T13:14:31;99619.44;;;33.89;44.85
17230;BME280;8731;50.364;8.958;2023-06-22T13:18:53;99613.69;;;33.44;45.60
17230;BME280;8731;50.364;8.958;2023-06-22T13:23:16;99621.81;;;33.12;46.44
17230;BME280;8731;50.364;8.958;2023-06-22T13:27:39;99625.44;;;33.02;46.35
17230;BME280;8731;50.364;8.958;2023-06-22T13:32:06;99624.22;;;33.49;46.45
17230;BME280;8731;50.364;8.958;2023-06-22T13:36:29;99615.16;;;33.73;47.16
17230;BME280;8731;50.364;8.958;2023-06-22T13:40:52;99606.72;;;33.31;47.00
17230;BME280;8731;50.364;8.958;2023-06-22T13:45:16;99613.91;;;33.17;46.31
17230;BME280;8731;50.364;8.958;2023-06-22T13:49:43;99603.66;;;32.68;47.81
17230;BME280;8731;50.364;8.958;2023-06-22T13:54:06;99586.75;;;32.98;47.61
17230;BME280;8731;50.364;8.958;2023-06-22T13:58:29;99586.66;;;33.09;48.39
17230;BME280;8731;50.364;8.958;2023-06-22T14:02:51;99572.94;;;32.58;48.58
17230;BME280;8731;50.364;8.958;2023-06-22T14:07:17;99564.94;;;32.70;48.06
17230;BME280;8731;50.364;8.958;2023-06-22T14:11:45;99570.28;;;32.59;48.63
17230;BME280;8731;50.364;8.958;2023-06-22T14:16:10;99554.28;;;32.87;48.33
17230;BME280;8731;50.364;8.958;2023-06-22T14:20:53;99541.22;;;32.70;48.32
17230;BME280;8731;50.364;8.958;2023-06-22T14:25:24;99528.00;;;32.75;48.88
17230;BME280;8731;50.364;8.958;2023-06-22T14:29:53;99529.78;;;32.73;48.81
17230;BME280;8731;50.364;8.958;2023-06-22T14:34:20;99528.22;;;32.43;49.05
17230;BME280;8731;50.364;8.958;2023-06-22T14:38:45;99504.59;;;32.21;50.25
17230;BME280;8731;50.364;8.958;2023-06-22T14:43:11;99498.25;;;32.56;50.03
17230;BME280;8731;50.364;8.958;2023-06-22T14:47:34;99487.94;;;32.10;49.31
17230;BME280;8731;50.364;8.958;2023-06-22T14:51:57;99475.56;;;32.30;49.88
17230;BME280;8731;50.364;8.958;2023-06-22T14:56:20;99470.41;;;32.06;50.00
17230;BME280;8731;50.364;8.958;2023-06-22T15:00:46;99453.00;;;31.76;51.03
17230;BME280;8731;50.364;8.958;2023-06-22T15:05:08;99457.28;;;31.94;49.97
17230;BME280;8731;50.364;8.958;2023-06-22T15:09:31;99460.78;;;32.03;49.19
17230;BME280;8731;50.364;8.958;2023-06-22T15:13:54;99459.91;;;32.03;49.46
17230;BME280;8731;50.364;8.958;2023-06-22T15:18:22;99450.38;;;31.65;49.46
17230;BME280;8731;50.364;8.958;2023-06-22T15:22:44;99437.19;;;31.67;49.01
17230;BME280;8731;50.364;8.958;2023-06-22T15:27:07;99448.66;;;31.55;49.26
17230;BME280;8731;50.364;8.958;2023-06-22T15:31:29;99438.88;;;31.88;49.32
17230;BME280;8731;50.364;8.958;2023-06-22T15:35:57;99439.75;;;31.90;49.53
17230;BME280;8731;50.364;8.958;2023-06-22T15:40:24;99434.50;;;31.90;49.93
17230;BME280;8731;50.364;8.958;2023-06-22T15:44:46;99417.16;;;31.15;51.47
17230;BME280;8731;50.364;8.958;2023-06-22T15:49:08;99411.88;;;31.38;50.75
17230;BME280;8731;50.364;8.958;2023-06-22T15:53:32;99410.00;;;31.63;49.73
17230;BME280;8731;50.364;8.958;2023-06-22T15:57:55;99402.94;;;31.84;49.23
17230;BME280;8731;50.364;8.958;2023-06-22T16:02:18;99387.28;;;31.41;50.52
17230;BME280;8731;50.364;8.958;2023-06-22T16:06:41;99378.53;;;31.42;50.69
17230;BME280;8731;50.364;8.958;2023-06-22T16:11:07;99360.03;;;31.59;51.10
17230;BME280;8731;50.364;8.958;2023-06-22T16:15:30;99340.78;;;31.43;50.72
17230;BME280;8731;50.364;8.958;2023-06-22T16:19:54;99354.88;;;31.36;51.08
17230;BME280;8731;50.364;8.958;2023-06-22T16:24:18;99409.34;;;31.00;51.37
17230;BME280;8731;50.364;8.958;2023-06-22T16:28:42;99439.16;;;30.73;52.34
17230;BME280;8731;50.364;8.958;2023-06-22T16:33:05;99474.22;;;30.80;52.08
17230;BME280;8731;50.364;8.958;2023-06-22T16:37:27;99500.50;;;30.77;52.42
17230;BME280;8731;50.364;8.958;2023-06-22T16:41:51;99571.31;;;30.22;54.09
17230;BME280;8731;50.364;8.958;2023-06-22T16:46:16;99615.31;;;29.30;57.09
17230;BME280;8731;50.364;8.958;2023-06-22T16:50:39;99648.94;;;28.85;56.77
17230;BME280;8731;50.364;8.958;2023-06-22T16:55:01;99668.19;;;28.19;57.99
17230;BME280;8731;50.364;8.958;2023-06-22T16:59:25;99661.88;;;26.17;68.41
17230;BME280;8731;50.364;8.958;2023-06-22T17:03:56;99621.09;;;25.82;70.75
17230;BME280;8731;50.364;8.958;2023-06-22T17:08:24;99543.53;;;26.17;66.40
17230;BME280;8731;50.364;8.958;2023-06-22T17:12:50;99523.00;;;26.34;65.20
17230;BME280;8731;50.364;8.958;2023-06-22T17:17:15;99542.00;;;26.26;64.13
17230;BME280;8731;50.364;8.958;2023-06-22T17:21:47;99550.19;;;25.26;67.99
17230;BME280;8731;50.364;8.958;2023-06-22T17:26:11;99556.16;;;25.56;68.55
17230;BME280;8731;50.364;8.958;2023-06-22T17:30:36;99564.88;;;24.88;70.77
17230;BME280;8731;50.364;8.958;2023-06-22T17:34:59;99565.22;;;25.36;70.05
17230;BME280;8731;50.364;8.958;2023-06-22T17:39:25;99566.19;;;25.77;70.01
17230;BME280;8731;50.364;8.958;2023-06-22T17:43:48;99544.00;;;25.97;71.10
17230;BME280;8731;50.364;8.958;2023-06-22T17:48:11;99524.69;;;25.11;74.25
17230;BME280;8731;50.364;8.958;2023-06-22T17:52:35;99529.59;;;24.66;76.20
17230;BME280;8731;50.364;8.958;2023-06-22T17:56:58;99542.72;;;25.03;72.91
17230;BME280;8731;50.364;8.958;2023-06-22T18:01:31;99548.22;;;25.16;73.00
17230;BME280;8731;50.364;8.958;2023-06-22T18:05:55;99549.03;;;25.13;73.39
17230;BME280;8731;50.364;8.958;2023-06-22T18:10:19;99559.94;;;25.33;72.26
17230;BME280;8731;50.364;8.958;2023-06-22T18:14:43;99564.34;;;25.01;74.10
17230;BME280;8731;50.364;8.958;2023-06-22T18:19:06;99566.63;;;24.26;79.23
17230;BME280;8731;50.364;8.958;2023-06-22T18:23:30;99558.75;;;23.93;81.99
17230;BME280;8731;50.364;8.958;2023-06-22T18:27:56;99550.00;;;24.21;80.96
17230;BME280;8731;50.364;8.958;2023-06-22T18:32:21;99544.53;;;24.11;80.63
17230;BME280;8731;50.364;8.958;2023-06-22T18:36:48;99539.66;;;24.22;79.75
17230;BME280;8731;50.364;8.958;2023-06-22T18:41:20;99537.34;;;24.03;78.80
17230;BME280;8731;50.364;8.958;2023-06-22T18:45:44;99529.31;;;24.57;77.49
17230;BME280;8731;50.364;8.958;2023-06-22T18:50:09;99526.75;;;23.95;83.43
17230;BME280;8731;50.364;8.958;2023-06-22T18:54:33;99532.16;;;24.64;78.77
17230;BME280;8731;50.364;8.958;2023-06-22T18:58:57;99523.28;;;24.58;77.60
17230;BME280;8731;50.364;8.958;2023-06-22T19:03:31;99529.97;;;24.48;78.63
17230;BME280;8731;50.364;8.958;2023-06-22T19:07:59;99526.16;;;24.35;78.98
17230;BME280;8731;50.364;8.958;2023-06-22T19:12:23;99520.06;;;24.05;80.79
17230;BME280;8731;50.364;8.958;2023-06-22T19:16:47;99510.31;;;23.66;83.13
17230;BME280;8731;50.364;8.958;2023-06-22T19:21:23;99500.13;;;23.74;83.04
17230;BME280;8731;50.364;8.958;2023-06-22T19:25:48;99489.81;;;24.08;79.39
17230;BME280;8731;50.364;8.958;2023-06-22T19:30:14;99494.19;;;24.09;79.41
17230;BME280;8731;50.364;8.958;2023-06-22T19:34:41;99465.44;;;24.05;79.73
17230;BME280;8731;50.364;8.958;2023-06-22T19:39:08;99455.88;;;23.44;83.35
17230;BME280;8731;50.364;8.958;2023-06-22T19:43:33;99483.06;;;23.55;82.31
17230;BME280;8731;50.364;8.958;2023-06-22T19:47:56;99484.47;;;23.17;85.26
17230;BME280;8731;50.364;8.958;2023-06-22T19:52:19;99509.00;;;22.98;86.57
17230;BME280;8731;50.364;8.958;2023-06-22T19:56:41;99528.69;;;23.18;83.68
17230;BME280;8731;50.364;8.958;2023-06-22T20:01:06;99535.63;;;22.92;84.98
17230;BME280;8731;50.364;8.958;2023-06-22T20:05:29;99529.78;;;23.25;81.86
17230;BME280;8731;50.364;8.958;2023-06-22T20:10:06;99519.31;;;22.71;86.83
17230;BME280;8731;50.364;8.958;2023-06-22T20:14:30;99508.81;;;22.68;87.18
17230;BME280;8731;50.364;8.958;2023-06-22T20:19:08;99517.81;;;23.03;83.19
17230;BME280;8731;50.364;8.958;2023-06-22T20:23:35;99493.63;;;23.04;84.37
17230;BME280;8731;50.364;8.958;2023-06-22T20:28:04;99508.16;;;22.74;88.95
17230;BME280;8731;50.364;8.958;2023-06-22T20:32:31;99518.31;;;22.42;92.25
17230;BME280;8731;50.364;8.958;2023-06-22T20:36:55;99509.97;;;21.79;97.70
17230;BME280;8731;50.364;8.958;2023-06-22T20:41:17;99506.50;;;22.25;92.58
17230;BME280;8731;50.364;8.958;2023-06-22T20:45:40;99505.44;;;22.45;88.71
17230;BME280;8731;50.364;8.958;2023-06-22T20:50:03;99518.69;;;22.27;91.08
17230;BME280;8731;50.364;8.958;2023-06-22T20:54:33;99515.00;;;22.46;88.83
17230;BME280;8731;50.364;8.958;2023-06-22T20:58:56;99532.28;;;22.46;88.28
17230;BME280;8731;50.364;8.958;2023-06-22T21:03:19;99544.50;;;22.24;90.72
17230;BME280;8731;50.364;8.958;2023-06-22T21:07:42;99549.13;;;22.33;88.43
17230;BME280;8731;50.364;8.958;2023-06-22T21:12:08;99558.94;;;21.95;88.55
17230;BME280;8731;50.364;8.958;2023-06-22T21:16:31;99559.88;;;22.20;88.37
17230;BME280;8731;50.364;8.958;2023-06-22T21:20:53;99566.00;;;21.99;88.83
17230;BME280;8731;50.364;8.958;2023-06-22T21:25:16;99564.13;;;21.95;89.65
17230;BME280;8731;50.364;8.958;2023-06-22T21:29:40;99549.19;;;22.11;88.77
17230;BME280;8731;50.364;8.958;2023-06-22T21:34:03;99562.97;;;22.10;88.84
17230;BME280;8731;50.364;8.958;2023-06-22T21:38:26;99582.69;;;22.04;88.46
17230;BME280;8731;50.364;8.958;2023-06-22T21:42:49;99595.50;;;22.01;88.29
17230;BME280;8731;50.364;8.958;2023-06-22T21:47:13;99607.38;;;21.96;88.10
17230;BME280;8731;50.364;8.958;2023-06-22T21:51:35;99608.50;;;22.03;90.02
17230;BME280;8731;50.364;8.958;2023-06-22T21:55:59;99611.88;;;22.00;89.73
17230;BME280;8731;50.364;8.958;2023-06-22T22:00:22;99630.81;;;21.99;89.33
17230;BME280;8731;50.364;8.958;2023-06-22T22:04:46;99644.31;;;22.12;87.79
17230;BME280;8731;50.364;8.958;2023-06-22T22:09:08;99663.94;;;22.05;88.23
17230;BME280;8731;50.364;8.958;2023-06-22T22:13:31;99665.88;;;22.11;87.76
17230;BME280;8731;50.364;8.958;2023-06-22T22:17:55;99676.31;;;22.12;87.99
17230;BME280;8731;50.364;8.958;2023-06-22T22:22:25;99694.28;;;22.08;86.31
17230;BME280;8731;50.364;8.958;2023-06-22T22:26:47;99700.41;;;22.10;88.76
17230;BME280;8731;50.364;8.958;2023-06-22T22:31:10;99710.97;;;21.93;91.11
17230;BME280;8731;50.364;8.958;2023-06-22T22:35:32;99690.88;;;21.88;90.75
17230;BME280;8731;50.364;8.958;2023-06-22T22:39:56;99691.41;;;21.79;90.04
17230;BME280;8731;50.364;8.958;2023-06-22T22:44:21;99705.47;;;21.86;89.57
17230;BME280;8731;50.364;8.958;2023-06-22T22:48:43;99703.00;;;21.89;88.27
17230;BME280;8731;50.364;8.958;2023-06-22T22:53:28;99689.22;;;21.90;88.24
17230;BME280;8731;50.364;8.958;2023-06-22T22:57:53;99686.94;;;21.76;89.04
17230;BME280;8731;50.364;8.958;2023-06-22T23:02:16;99680.22;;;21.80;88.69
17230;BME280;8731;50.364;8.958;2023-06-22T23:06:38;99679.50;;;21.84;87.95
17230;BME280;8731;50.364;8.958;2023-06-22T23:11:01;99692.66;;;21.68;88.04
17230;BME280;8731;50.364;8.958;2023-06-22T23:15:26;99693.66;;;21.71;86.78
17230;BME280;8731;50.364;8.958;2023-06-22T23:19:51;99690.78;;;21.64;85.98
17230;BME280;8731;50.364;8.958;2023-06-22T23:24:14;99701.44;;;21.71;85.36
17230;BME280;8731;50.364;8.958;2023-06-22T23:28:36;99696.72;;;21.61;87.24
17230;BME280;8731;50.364;8.958;2023-06-22T23:33:00;99711.25;;;21.37;87.07
17230;BME280;8731;50.364;8.958;2023-06-22T23:37:26;99709.47;;;21.36;86.13
17230;BME280;8731;50.364;8.958;2023-06-22T23:41:49;99709.81;;;21.24;85.93